createdAt,value
2022-12-08T00:06:46.265Z,15.7
2022-12-08T00:08:47.892Z,11.7
2022-12-08T00:17:47.051Z,10.1
2022-12-08T00:19:48.661Z,13
2022-12-08T00:21:50.330Z,11.2
2022-12-08T00:23:54.637Z,14.4
2022-12-08T00:25:56.323Z,7.9
2022-12-08T00:27:57.981Z,7.4
2022-12-08T00:30:02.304Z,11.5
2022-12-08T00:32:04.104Z,11.5
2022-12-08T00:34:05.614Z,20
2022-12-08T00:36:10.019Z,8.8
2022-12-08T00:40:13.293Z,10
2022-12-08T00:42:17.656Z,13.4
2022-12-08T00:44:19.326Z,18.2
2022-12-08T00:46:21.067Z,10.9
2022-12-08T00:48:25.352Z,11
2022-12-08T00:50:27.034Z,11.7
2022-12-08T00:52:28.675Z,9
2022-12-08T00:57:41.876Z,11
2022-12-08T01:01:45.367Z,12.6
2022-12-08T01:03:49.663Z,11.9
2022-12-08T01:05:51.242Z,10.7
2022-12-08T01:09:57.266Z,11.7
2022-12-08T01:11:58.931Z,14
2022-12-08T01:14:00.581Z,11.1
2022-12-08T01:19:10.238Z,13.8
2022-12-08T01:21:11.895Z,10.6
2022-12-08T01:23:13.576Z,17.4
2022-12-08T01:25:17.930Z,26.7
2022-12-08T01:27:19.592Z,13.9
2022-12-08T01:29:21.278Z,17.1
2022-12-08T01:34:26.861Z,15
2022-12-08T01:36:28.527Z,14
2022-12-08T01:38:30.222Z,24.8
2022-12-08T01:40:34.613Z,20.5
2022-12-08T01:42:36.270Z,15.7
2022-12-08T01:44:37.992Z,18.9
2022-12-08T01:46:42.430Z,17.4
2022-12-08T01:48:44.026Z,18.5
2022-12-08T01:50:45.680Z,18.6
2022-12-08T01:55:58.912Z,17.7
2022-12-08T01:58:00.614Z,16.8
2022-12-08T02:00:03.292Z,16.2
2022-12-08T02:04:08.341Z,18
2022-12-08T02:06:10.053Z,19.9
2022-12-08T02:08:14.496Z,17.6
2022-12-08T02:10:16.137Z,17.5
2022-12-08T02:12:17.785Z,21.9
2022-12-08T02:14:22.245Z,31.2
2022-12-08T02:16:23.913Z,17.1
2022-12-08T02:18:25.535Z,22.4
2022-12-08T02:20:29.913Z,25.5
2022-12-08T02:22:31.753Z,21.5
2022-12-08T02:24:33.298Z,19.2
2022-12-08T02:26:37.692Z,17.6
2022-12-08T02:28:39.407Z,16.4
2022-12-08T02:30:41.151Z,19.3
2022-12-08T02:34:47.161Z,19.7
2022-12-08T02:36:48.887Z,19.4
2022-12-08T02:38:53.264Z,16.1
2022-12-08T02:40:54.997Z,15.8
2022-12-08T02:42:56.670Z,14.5
2022-12-08T02:45:01.042Z,14.9
2022-12-08T02:47:02.786Z,14.8
2022-12-08T02:49:04.527Z,16.4
2022-12-08T02:54:10.827Z,12.2
2022-12-08T02:56:12.546Z,12.8
2022-12-08T02:58:14.243Z,12.6
2022-12-08T03:00:18.605Z,10.8
2022-12-08T03:04:22.017Z,10.8
2022-12-08T03:11:34.667Z,9.9
2022-12-08T03:13:36.384Z,9.6
2022-12-08T03:17:42.513Z,9.3
2022-12-08T03:19:44.186Z,7.5
2022-12-08T03:21:48.556Z,9.3
2022-12-08T03:23:50.398Z,8.6
2022-12-08T03:25:51.984Z,9.3
2022-12-08T03:27:56.375Z,9.4
2022-12-08T03:29:58.073Z,9.8
2022-12-08T03:34:04.149Z,8.6
2022-12-08T03:42:13.646Z,12.2
2022-12-08T03:44:15.351Z,11
2022-12-08T03:50:23.120Z,13
2022-12-08T03:56:30.917Z,13.1
2022-12-08T03:58:37.522Z,12.3
2022-12-08T04:00:37.007Z,11.1
2022-12-08T04:04:43.115Z,11.9
2022-12-08T04:06:44.784Z,11.5
2022-12-08T04:08:46.480Z,14.1
2022-12-08T04:10:50.859Z,11.8
2022-12-08T04:12:52.563Z,13
2022-12-08T04:14:54.290Z,13.3
2022-12-08T04:16:58.676Z,12.3
2022-12-08T04:19:00.340Z,15.4
2022-12-08T04:21:02.048Z,12.1
2022-12-08T04:23:06.433Z,11.7
2022-12-08T04:25:08.149Z,13.1
2022-12-08T04:27:09.843Z,12.2
2022-12-08T04:29:14.212Z,16.6
2022-12-08T04:31:15.955Z,12.5
2022-12-08T04:33:17.638Z,9.8
2022-12-08T04:35:22.014Z,13.7
2022-12-08T04:37:23.729Z,10.1
2022-12-08T04:39:25.423Z,12.7
2022-12-08T04:45:33.411Z,9.9
2022-12-08T04:47:37.796Z,9.7
2022-12-08T04:51:41.223Z,7.8
2022-12-08T04:53:46.641Z,8.7
2022-12-08T04:55:47.321Z,8.8
2022-12-08T04:57:49.024Z,12.2
2022-12-08T04:59:53.396Z,7.5
2022-12-08T05:01:55.269Z,7.2
2022-12-08T05:03:56.845Z,7.8
2022-12-08T05:11:04.262Z,8.2
2022-12-08T05:13:06.001Z,8.5
2022-12-08T05:15:10.387Z,7.2
2022-12-08T05:17:12.097Z,9.1
2022-12-08T05:19:13.811Z,7.4
2022-12-08T05:24:22.998Z,8.1
2022-12-08T05:26:24.678Z,6.9
2022-12-08T05:28:41.951Z,7.5
2022-12-08T05:30:30.773Z,8.2
2022-12-08T05:32:32.477Z,12.4
2022-12-08T05:34:34.174Z,9.1
2022-12-08T05:36:38.566Z,7.3
2022-12-08T05:38:40.264Z,8.9
2022-12-08T05:40:41.978Z,6.7
2022-12-08T05:42:46.430Z,5.3
2022-12-08T05:44:48.066Z,5.4
2022-12-08T05:46:49.779Z,7.8
2022-12-08T05:51:53.457Z,5.8
2022-12-08T05:53:55.147Z,5.4
2022-12-08T05:55:56.837Z,4.9
2022-12-08T05:58:06.226Z,7.8
2022-12-08T06:00:03.271Z,8.3
2022-12-08T06:02:04.811Z,4.1
2022-12-08T06:13:45.988Z,6
2022-12-08T06:15:47.689Z,9.8
2022-12-08T06:17:49.390Z,2.8
2022-12-08T06:22:56.257Z,3.8
2022-12-08T06:24:57.920Z,3.2
2022-12-08T06:26:59.602Z,3.3
2022-12-08T06:29:03.986Z,2.8
2022-12-08T06:31:05.668Z,2.8
2022-12-08T06:33:07.372Z,3.2
2022-12-08T06:35:11.718Z,2.5
2022-12-08T06:37:13.407Z,2.5
2022-12-08T06:39:15.091Z,2.5
2022-12-08T06:41:19.699Z,3.5
2022-12-08T06:45:22.883Z,3.1
2022-12-08T06:47:27.227Z,3.5
2022-12-08T06:49:28.953Z,2.5
2022-12-08T06:51:30.616Z,3.5
2022-12-08T06:55:58.781Z,2.6
2022-12-08T06:57:38.373Z,3.2
2022-12-08T06:59:42.750Z,2.8
2022-12-08T07:01:44.526Z,2.9
2022-12-08T07:03:46.133Z,3.2
2022-12-08T07:05:50.487Z,3.6
2022-12-08T07:07:52.238Z,3.3
2022-12-08T07:09:53.845Z,3.7
2022-12-08T07:11:58.204Z,4
2022-12-08T07:14:00.071Z,3.8
2022-12-08T07:18:05.948Z,4.2
2022-12-08T07:20:07.848Z,3.7
2022-12-08T07:26:15.344Z,6
2022-12-08T07:28:17.014Z,6.2
2022-12-08T07:30:21.366Z,6.1
2022-12-08T07:32:23.099Z,6.2
2022-12-08T07:34:24.747Z,6.3
2022-12-08T07:36:29.106Z,6.2
2022-12-08T07:38:30.828Z,9.8
2022-12-08T07:40:32.462Z,8.3
2022-12-08T07:42:36.820Z,7.1
2022-12-08T07:44:38.522Z,6.8
2022-12-08T07:46:40.406Z,7
2022-12-08T07:48:44.639Z,6
2022-12-08T07:50:46.253Z,5.3
2022-12-08T07:52:47.920Z,8.5
2022-12-08T07:54:52.558Z,6.1
2022-12-08T07:56:53.957Z,7.6
2022-12-08T07:58:55.650Z,9.6
2022-12-08T08:01:00.140Z,4.9
2022-12-08T08:03:01.796Z,8.6
2022-12-08T08:05:03.446Z,5.5
2022-12-08T08:07:07.755Z,5.6
2022-12-08T08:11:19.032Z,6.7
2022-12-08T08:13:15.474Z,6.3
2022-12-08T08:17:18.913Z,7.2
2022-12-08T08:19:23.184Z,6.6
2022-12-08T08:21:44.941Z,5.5
2022-12-08T08:23:26.558Z,5.3
2022-12-08T08:25:30.928Z,4.6
2022-12-08T08:27:32.627Z,6.3
2022-12-08T08:29:34.288Z,5.8
2022-12-08T08:33:40.326Z,6.1
2022-12-08T08:35:42.015Z,5.5
2022-12-08T08:37:49.168Z,4.3
2022-12-08T08:39:48.064Z,5.6
2022-12-08T08:41:49.740Z,8.5
2022-12-08T08:43:54.101Z,3.8
2022-12-08T08:45:55.839Z,5.4
2022-12-08T08:47:57.535Z,4.4
2022-12-08T08:50:02.242Z,4.7
2022-12-08T08:52:03.529Z,7.8
2022-12-08T08:54:05.216Z,4.6
2022-12-08T08:56:09.585Z,5.3
2022-12-08T08:58:11.271Z,5
2022-12-08T09:00:12.951Z,4.8
2022-12-08T09:04:19.096Z,4.7
2022-12-08T09:06:20.765Z,4.9
2022-12-08T09:08:25.202Z,6.1
2022-12-08T09:10:26.785Z,4.9
2022-12-08T09:12:28.457Z,5.6
2022-12-08T09:21:27.812Z,3.9
2022-12-08T09:23:35.101Z,4.1
2022-12-08T09:25:31.208Z,5
2022-12-08T09:33:43.343Z,3.7
2022-12-08T09:35:45.042Z,5.2
2022-12-08T09:41:52.784Z,7.3
2022-12-08T09:43:54.477Z,5.7
2022-12-08T09:50:02.693Z,5.5
2022-12-08T09:52:06.634Z,4.5
2022-12-08T09:54:08.325Z,5
2022-12-08T09:56:10.014Z,4.5
2022-12-08T09:58:14.408Z,4.8
2022-12-08T10:00:16.103Z,4.6
2022-12-08T10:02:17.978Z,4.2
2022-12-08T10:04:22.193Z,4.6
2022-12-08T10:06:23.909Z,8.4
2022-12-08T10:08:25.673Z,5.4
2022-12-08T10:10:30.013Z,4.7
2022-12-08T10:12:31.711Z,4.5
2022-12-08T10:14:33.450Z,4.3
2022-12-08T10:16:37.867Z,3.2
2022-12-08T10:18:39.480Z,4.5
2022-12-08T10:20:41.256Z,4.4
2022-12-08T10:22:45.603Z,4.3
2022-12-08T10:26:49.013Z,3.6
2022-12-08T10:28:53.402Z,3.2
2022-12-08T10:30:55.222Z,3.8
2022-12-08T10:32:56.861Z,3.6
2022-12-08T10:37:02.895Z,3.7
2022-12-08T10:39:04.579Z,3.7
2022-12-08T10:44:12.666Z,2.7
2022-12-08T10:46:14.394Z,3.7
2022-12-08T10:48:16.048Z,2.3
2022-12-08T10:50:20.439Z,2.9
2022-12-08T10:52:22.141Z,2.5
2022-12-08T10:54:23.842Z,2.3
2022-12-08T11:01:37.796Z,2.8
2022-12-08T11:03:39.373Z,7.4
2022-12-08T11:05:43.737Z,2.1
2022-12-08T11:07:45.603Z,5.1
2022-12-08T11:13:53.266Z,1.9
2022-12-08T11:22:02.837Z,1.3
2022-12-08T11:30:15.342Z,1.6
2022-12-08T11:34:18.475Z,0.9
2022-12-08T11:44:32.416Z,1.3
2022-12-08T11:46:34.244Z,1.5
2022-12-08T11:54:46.360Z,1.6
2022-12-08T11:56:48.060Z,1.4
2022-12-08T12:08:04.351Z,4.1
2022-12-08T12:10:08.749Z,1.7
2022-12-08T12:12:10.397Z,1.3
2022-12-08T12:14:12.113Z,1
2022-12-08T12:16:16.579Z,1
2022-12-08T12:18:18.250Z,0.6
2022-12-08T12:24:28.511Z,0.6
2022-12-08T12:26:27.827Z,7.4
2022-12-08T12:34:40.115Z,0.7
2022-12-08T12:36:41.820Z,0.8
2022-12-08T12:40:47.949Z,6.8
2022-12-08T12:46:55.816Z,0.9
2022-12-08T12:48:57.549Z,1.7
2022-12-08T12:50:59.281Z,2.7
2022-12-08T12:53:05.867Z,2.5
2022-12-08T12:57:07.120Z,0.4
2022-12-08T12:59:11.548Z,1.5
2022-12-08T13:01:13.556Z,2.3
2022-12-08T13:03:14.981Z,0.7
2022-12-08T13:10:29.889Z,1.7
2022-12-08T13:12:31.616Z,4.1
2022-12-08T13:14:35.953Z,2.1
2022-12-08T13:18:39.399Z,0.5
2022-12-08T13:23:46.925Z,4.8
2022-12-08T13:29:54.777Z,2.5
2022-12-08T13:42:57.713Z,0.3
2022-12-08T13:45:27.979Z,0.7
2022-12-08T13:47:32.699Z,4.4
2022-12-08T13:56:37.473Z,7.9
2022-12-08T13:57:15.542Z,1.2
2022-12-08T13:59:16.923Z,5.1
2022-12-08T14:01:21.413Z,1
2022-12-08T14:03:23.026Z,2.7
2022-12-08T14:05:47.638Z,0.8
2022-12-08T14:07:29.167Z,2.3
2022-12-08T14:09:30.933Z,1.2
2022-12-08T14:11:32.584Z,0.6
2022-12-08T14:13:36.964Z,1.3
2022-12-08T14:15:38.952Z,0.5
2022-12-08T14:17:40.401Z,0.9
2022-12-08T14:19:44.780Z,1
2022-12-08T14:21:46.498Z,4.9
2022-12-08T14:23:48.182Z,0.8
2022-12-08T14:35:29.646Z,1.1
2022-12-08T14:37:31.294Z,1.6
2022-12-08T14:39:32.963Z,4.5
2022-12-08T14:41:37.347Z,0.8
2022-12-08T14:43:39.042Z,2.7
2022-12-08T14:47:45.129Z,1.6
2022-12-08T14:51:48.468Z,1.5
2022-12-08T14:53:52.914Z,1.1
2022-12-08T14:55:54.555Z,1.3
2022-12-08T15:02:02.350Z,47.2
2022-12-08T15:04:03.994Z,3.2
2022-12-08T15:10:11.684Z,3.8
2022-12-08T15:16:19.434Z,1.6
2022-12-08T15:22:27.146Z,4.4
2022-12-08T15:24:31.544Z,2.1
2022-12-08T15:26:33.265Z,4.8
2022-12-08T15:28:34.889Z,1.7
2022-12-08T15:32:40.941Z,1.6
2022-12-08T15:34:42.640Z,2
2022-12-08T15:36:46.984Z,1.4
2022-12-08T15:46:58.153Z,3.9
2022-12-08T15:49:02.390Z,2.1
2022-12-08T15:51:04.086Z,2.6
2022-12-08T15:53:05.740Z,2.3
2022-12-08T15:55:10.098Z,3.7
2022-12-08T15:59:13.416Z,2.4
2022-12-08T16:01:17.812Z,2.3
2022-12-08T16:03:49.461Z,2.5
2022-12-08T16:05:46.646Z,3
2022-12-08T16:07:25.508Z,4
2022-12-08T16:12:03.730Z,3.4
2022-12-08T16:13:58.191Z,5.5
2022-12-08T16:17:36.461Z,11.4
2022-12-08T16:19:40.791Z,10.5
2022-12-08T16:22:17.657Z,7.8
2022-12-08T16:23:45.273Z,9.7
2022-12-08T16:26:17.282Z,6.9
2022-12-08T16:28:01.317Z,7.1
2022-12-08T16:29:51.822Z,6.9
2022-12-08T16:31:56.223Z,7.9
2022-12-08T16:33:57.883Z,6.4
2022-12-08T16:35:59.542Z,8.7
2022-12-08T16:38:03.906Z,7.6
2022-12-08T16:40:05.634Z,6.7
2022-12-08T16:42:07.222Z,8.6
2022-12-08T16:44:11.589Z,8.1
2022-12-08T16:48:14.879Z,8.3
2022-12-08T16:50:19.246Z,8.9
2022-12-08T16:52:20.914Z,8.5
2022-12-08T16:54:22.548Z,8.1
2022-12-08T16:56:32.527Z,8.1
2022-12-08T16:58:28.556Z,15.7
2022-12-08T17:02:34.548Z,9.2
2022-12-08T17:08:42.174Z,11.2
2022-12-08T17:10:43.838Z,11.1
2022-12-08T17:16:51.529Z,9.5
2022-12-08T17:18:53.119Z,9
2022-12-08T17:33:12.617Z,11.2
2022-12-08T17:35:14.234Z,10.6
2022-12-08T17:41:21.830Z,12.6
2022-12-08T17:43:25.133Z,16.3
2022-12-08T17:49:32.728Z,12.3
2022-12-08T17:57:44.608Z,15.9
2022-12-08T18:03:52.199Z,20.9
2022-12-08T18:12:01.478Z,15.4
2022-12-08T18:14:03.112Z,14.3
2022-12-08T18:16:07.482Z,19
2022-12-08T18:18:09.069Z,17.5
2022-12-08T18:20:10.706Z,17.5
2022-12-08T18:22:15.051Z,19.5
2022-12-08T18:24:16.687Z,20
2022-12-08T18:26:18.438Z,21
2022-12-08T18:28:22.695Z,18.7
2022-12-08T18:30:24.453Z,16.2
2022-12-08T18:32:26.105Z,20.8
2022-12-08T18:34:30.431Z,23
2022-12-08T18:38:33.769Z,18
2022-12-08T18:40:38.088Z,16.5
2022-12-08T18:42:39.726Z,18.9
2022-12-08T18:44:41.398Z,17.5
2022-12-08T18:46:45.721Z,14.2
2022-12-08T18:50:49.045Z,22
2022-12-08T18:52:53.386Z,14.4
2022-12-08T19:01:02.846Z,20.4
2022-12-08T19:03:04.384Z,25.4
2022-12-08T19:09:12.049Z,25
2022-12-08T19:11:16.404Z,22.1
2022-12-08T19:19:25.756Z,24.8
2022-12-08T19:21:27.429Z,23.7
2022-12-08T19:23:31.773Z,33
2022-12-08T19:25:33.443Z,28.2
2022-12-08T19:33:42.790Z,28.4
2022-12-08T19:40:55.316Z,28.5
2022-12-08T19:42:56.985Z,29.8
2022-12-08T19:45:01.311Z,27
2022-12-08T19:47:03.074Z,27.6
2022-12-08T19:49:04.648Z,32.4
2022-12-08T19:51:09.061Z,32.4
2022-12-08T19:53:10.699Z,49.5
2022-12-08T19:55:12.366Z,31.9
2022-12-08T20:03:24.452Z,38
2022-12-08T20:07:27.746Z,34.2
2022-12-08T20:09:32.101Z,30.4
2022-12-08T20:11:33.776Z,26.5
2022-12-08T20:25:15.170Z,37.1
2022-12-08T20:31:22.384Z,32
2022-12-08T20:33:23.972Z,44.1
2022-12-08T20:35:25.643Z,47.1
2022-12-08T20:37:30.242Z,35.8
2022-12-08T20:39:31.655Z,37.7
2022-12-08T20:41:38.793Z,39.4
2022-12-08T20:43:37.706Z,34.1
2022-12-08T20:45:39.409Z,37.2
2022-12-08T20:49:45.555Z,39.4
2022-12-08T20:51:47.297Z,43.3
2022-12-08T20:53:49.004Z,50.7
2022-12-08T20:55:53.296Z,41.5
2022-12-08T20:57:54.846Z,36.8
2022-12-08T20:59:56.663Z,48.5
2022-12-08T21:06:04.285Z,41.1
2022-12-08T21:12:12.220Z,43.9
2022-12-08T21:19:22.091Z,41.9
2022-12-08T21:21:23.865Z,45.9
2022-12-08T21:23:28.132Z,41
2022-12-08T21:25:29.807Z,35.9
2022-12-08T21:29:35.907Z,44.7
2022-12-08T21:31:37.592Z,39.9
2022-12-08T21:35:43.746Z,42.5
2022-12-08T21:37:45.335Z,37.1
2022-12-08T21:41:51.330Z,45.5
2022-12-08T21:43:52.936Z,39
2022-12-08T21:45:54.618Z,36.7
2022-12-08T21:47:59.181Z,32.9
2022-12-08T21:50:00.907Z,37.9
2022-12-08T21:52:02.388Z,32.4
2022-12-08T21:54:06.751Z,41.5
2022-12-08T21:56:08.450Z,40
2022-12-08T21:58:10.128Z,37.9
2022-12-08T22:00:14.510Z,36.8
2022-12-08T22:04:18.242Z,37.6
2022-12-08T22:06:22.230Z,44.6
2022-12-08T22:08:24.175Z,45.9
2022-12-08T22:10:25.733Z,43.5
2022-12-08T22:12:30.174Z,44.5
2022-12-08T22:14:31.664Z,42.7
2022-12-08T22:16:33.590Z,47.8
2022-12-08T22:22:41.058Z,42.6
2022-12-08T22:24:45.570Z,51.5
2022-12-08T22:26:47.193Z,59.4
2022-12-08T22:28:48.757Z,47.7
2022-12-08T22:36:08.205Z,49.8
2022-12-08T22:38:03.159Z,41
2022-12-08T22:40:07.805Z,55.1
2022-12-08T22:42:09.158Z,52.4
2022-12-08T22:44:11.019Z,46.5
2022-12-08T22:46:15.231Z,49.9
2022-12-08T22:48:16.941Z,55
2022-12-08T22:50:18.579Z,55.6
2022-12-08T22:52:22.930Z,59.3
2022-12-08T22:54:24.588Z,55.2
2022-12-08T22:56:26.493Z,49.9
2022-12-08T22:58:30.733Z,49.6
2022-12-08T23:00:32.457Z,49.4
2022-12-08T23:02:33.999Z,52.3
2022-12-08T23:04:44.825Z,48.9
2022-12-08T23:06:46.182Z,47.5
2022-12-08T23:16:01.582Z,50.4
2022-12-08T23:32:23.323Z,51.5
2022-12-08T23:34:24.924Z,58.3
2022-12-08T23:40:32.465Z,53.1
2022-12-08T23:42:34.275Z,51.5
2022-12-08T23:44:38.560Z,51.1
2022-12-08T23:48:42.157Z,61.9
2022-12-08T23:50:46.252Z,51.9
2022-12-08T23:56:54.045Z,59.9
